Paige, TX

9:33 AM CDT on August 28, 2014 (GMT -0500)
La Grange | Change Station
CLOSE
Current Station
Airport
Location: La Grange,
Elevation: 322 ft
Nearby Weather Stations

Elev 322 ft 29.91 °N, 96.95 °W | Updated 18 minutes ago

Scattered Clouds
Scattered Clouds
83 °F
Feels Like 92 °F
N
4
Wind Variable Wind from East

Today
High -- | Low -- °F
--% Chance of Precip.
Yesterday
High -- | Low -- °F
Precip. -- in
7:03 AM 7:55 PM
Waxing Crescent, 8% visible
Pressure 29.92 in
Visibility 10.0 miles
Clouds Scattered Clouds 1000 ft
Heat Index 92 °F
Dew Point 77 °F
Humidity 81%
Rainfall 0.00 in
Snow Depth Not available.
UV 2 out of 12
Pollen 7.30 out of 12
Ozone Good
PM2.5 Good
Flu Activity Not available.
METAR K3T5 281415Z AUTO 09003KT 10SM SCT010 28/25 A2992 RMK AO2 LTG DSNT E THRU S T02830248

More Conditions Fewer Conditions

Pressure 29.92 in
Visibility 10.0 miles
Clouds Scattered Clouds 1000 ft
Heat Index 92 °F
Dew Point 77 °F
Humidity 81%
Rainfall 0.00 in
Snow Depth Not available.
UV 2 out of 12
Pollen 7.30 out of 12
Ozone Good
PM2.5 Good
Flu Activity Not available.
METAR K3T5 281415Z AUTO 09003KT 10SM SCT010 28/25 A2992 RMK AO2 LTG DSNT E THRU S T02830248

More Conditions Fewer Conditions

10-Day Weather Forecast

Almanac

Astronomy

Aug. 28, 2014 Rise Set
Actual Time 7:03 AM CDT 7:55 PM CDT
Civil Twilight 6:38 AM CDT 8:20 PM CDT
Nautical Twilight 6:09 AM CDT 8:49 PM CDT
Astronomical Twilight 5:39 AM CDT 9:18 PM CDT
Moon 9:41 AM CDT 9:37 PM CDT
Length of Visible Light 13h 41m
Length of Day
12h 52m
Tomorrow will be 1m 44s shorter.
Waxing Crescent, 8% of the Moon is Illuminated
Today
Waxing Crescent
Sep 2
First Quarter
Sep 8
Full
Sep 15
Last Quarter
Sep 24
New

Today's Extremes

State Highs State Lows

Community

WunderPhotos

Upload Photos

1,747,963 photos uploaded!

Nearby

Air Quality

  Air Quality AQ Index Pollutant
Yesterday Moderate
OZONE
Yesterday Good
PM2.5
Current Good
PM2.5
Current Good
OZONE
Thursday Moderate
OZONE
Thursday Good
PM10
Friday Good
OZONE
Friday Good
PM10
Saturday Good
OZONE
Saturday Good
PM10
Sunday Good
OZONE
Sunday Good
PM10

Snow Depth

Station Depth Elevation
No new snow has been reported.

Earthquake Activity

City Distance Mag. Time & Date
No recent earthquake activity has been reported nearby.
Minimum magnitude displayed is 2.5.

Coastal Water Temperatures

Place Temperature
No Stations Reporting

Nearby Weather Stations